sensor_id;sensor_type;location;lat;lon;timestamp;temperature;humidity
38788;DHT22;24536;45.488;12.238;2022-11-20T00:02:16;12.70;83.80
38788;DHT22;24536;45.488;12.238;2022-11-20T00:04:41;12.70;83.00
38788;DHT22;24536;45.488;12.238;2022-11-20T00:07:07;12.70;83.20
38788;DHT22;24536;45.488;12.238;2022-11-20T00:09:33;12.70;82.80
38788;DHT22;24536;45.488;12.238;2022-11-20T00:11:58;12.70;83.00
38788;DHT22;24536;45.488;12.238;2022-11-20T00:14:24;12.70;83.10
38788;DHT22;24536;45.488;12.238;2022-11-20T00:16:49;12.70;83.10
38788;DHT22;24536;45.488;12.238;2022-11-20T00:19:15;12.80;83.10
38788;DHT22;24536;45.488;12.238;2022-11-20T00:21:41;12.80;82.90
38788;DHT22;24536;45.488;12.238;2022-11-20T00:24:08;12.80;82.80
38788;DHT22;24536;45.488;12.238;2022-11-20T00:26:35;12.80;82.80
38788;DHT22;24536;45.488;12.238;2022-11-20T00:29:01;12.80;82.80
38788;DHT22;24536;45.488;12.238;2022-11-20T00:31:28;12.80;82.70
38788;DHT22;24536;45.488;12.238;2022-11-20T00:33:54;12.80;82.30
38788;DHT22;24536;45.488;12.238;2022-11-20T00:36:22;12.70;82.60
38788;DHT22;24536;45.488;12.238;2022-11-20T00:38:52;12.70;82.90
38788;DHT22;24536;45.488;12.238;2022-11-20T00:41:18;12.60;82.90
38788;DHT22;24536;45.488;12.238;2022-11-20T00:43:44;12.60;82.80
38788;DHT22;24536;45.488;12.238;2022-11-20T00:46:16;12.60;82.50
38788;DHT22;24536;45.488;12.238;2022-11-20T00:48:43;12.60;82.20
38788;DHT22;24536;45.488;12.238;2022-11-20T00:51:09;12.60;82.50
38788;DHT22;24536;45.488;12.238;2022-11-20T00:53:36;12.50;82.30
38788;DHT22;24536;45.488;12.238;2022-11-20T00:56:06;12.50;82.10
38788;DHT22;24536;45.488;12.238;2022-11-20T00:58:39;12.50;82.60
38788;DHT22;24536;45.488;12.238;2022-11-20T01:01:19;12.60;82.70
38788;DHT22;24536;45.488;12.238;2022-11-20T01:03:49;12.50;81.90
38788;DHT22;24536;45.488;12.238;2022-11-20T01:06:17;12.50;82.00
38788;DHT22;24536;45.488;12.238;2022-11-20T01:08:43;12.40;82.50
38788;DHT22;24536;45.488;12.238;2022-11-20T01:11:12;12.20;82.30
38788;DHT22;24536;45.488;12.238;2022-11-20T01:13:39;12.30;82.70
38788;DHT22;24536;45.488;12.238;2022-11-20T01:16:10;12.30;82.60
38788;DHT22;24536;45.488;12.238;2022-11-20T01:18:37;12.40;82.20
38788;DHT22;24536;45.488;12.238;2022-11-20T01:21:09;12.40;81.80
38788;DHT22;24536;45.488;12.238;2022-11-20T01:23:37;12.40;81.60
38788;DHT22;24536;45.488;12.238;2022-11-20T01:26:26;12.40;81.80
38788;DHT22;24536;45.488;12.238;2022-11-20T01:28:51;12.50;82.10
38788;DHT22;24536;45.488;12.238;2022-11-20T01:31:30;12.50;82.10
38788;DHT22;24536;45.488;12.238;2022-11-20T01:34:00;12.60;81.30
38788;DHT22;24536;45.488;12.238;2022-11-20T01:36:28;12.60;81.00
38788;DHT22;24536;45.488;12.238;2022-11-20T01:38:56;12.60;80.40
38788;DHT22;24536;45.488;12.238;2022-11-20T01:41:22;12.60;80.90
38788;DHT22;24536;45.488;12.238;2022-11-20T01:44:08;12.60;79.70
38788;DHT22;24536;45.488;12.238;2022-11-20T01:46:37;12.60;80.40
38788;DHT22;24536;45.488;12.238;2022-11-20T01:49:27;12.70;80.80
38788;DHT22;24536;45.488;12.238;2022-11-20T01:52:01;12.80;80.60
38788;DHT22;24536;45.488;12.238;2022-11-20T01:54:37;12.80;80.40
38788;DHT22;24536;45.488;12.238;2022-11-20T01:57:06;12.90;80.20
38788;DHT22;24536;45.488;12.238;2022-11-20T01:59:36;12.90;80.00
38788;DHT22;24536;45.488;12.238;2022-11-20T02:02:04;13.00;79.70
38788;DHT22;24536;45.488;12.238;2022-11-20T02:04:30;13.00;79.00
38788;DHT22;24536;45.488;12.238;2022-11-20T02:07:00;13.00;79.30
38788;DHT22;24536;45.488;12.238;2022-11-20T02:09:28;13.00;79.40
38788;DHT22;24536;45.488;12.238;2022-11-20T02:11:54;13.10;79.30
38788;DHT22;24536;45.488;12.238;2022-11-20T02:14:21;13.10;79.20
38788;DHT22;24536;45.488;12.238;2022-11-20T02:16:49;13.00;79.20
38788;DHT22;24536;45.488;12.238;2022-11-20T02:24:26;13.10;79.10
38788;DHT22;24536;45.488;12.238;2022-11-20T02:26:55;13.10;79.00
38788;DHT22;24536;45.488;12.238;2022-11-20T02:29:38;13.10;78.90
38788;DHT22;24536;45.488;12.238;2022-11-20T02:32:05;13.10;78.90
38788;DHT22;24536;45.488;12.238;2022-11-20T02:34:30;13.10;78.50
38788;DHT22;24536;45.488;12.238;2022-11-20T02:36:56;13.10;78.70
38788;DHT22;24536;45.488;12.238;2022-11-20T02:39:24;13.10;78.60
38788;DHT22;24536;45.488;12.238;2022-11-20T02:41:52;13.10;78.20
38788;DHT22;24536;45.488;12.238;2022-11-20T02:44:19;13.10;78.10
38788;DHT22;24536;45.488;12.238;2022-11-20T02:46:45;13.10;78.10
38788;DHT22;24536;45.488;12.238;2022-11-20T02:49:11;13.10;78.30
38788;DHT22;24536;45.488;12.238;2022-11-20T02:51:37;13.10;78.30
38788;DHT22;24536;45.488;12.238;2022-11-20T02:54:02;13.20;78.60
38788;DHT22;24536;45.488;12.238;2022-11-20T02:56:28;13.10;78.50
38788;DHT22;24536;45.488;12.238;2022-11-20T02:58:54;13.10;78.60
38788;DHT22;24536;45.488;12.238;2022-11-20T03:01:21;13.10;78.60
38788;DHT22;24536;45.488;12.238;2022-11-20T03:03:46;13.10;78.60
38788;DHT22;24536;45.488;12.238;2022-11-20T03:06:14;13.10;78.60
38788;DHT22;24536;45.488;12.238;2022-11-20T03:08:40;13.10;78.50
38788;DHT22;24536;45.488;12.238;2022-11-20T03:11:07;13.00;78.40
38788;DHT22;24536;45.488;12.238;2022-11-20T03:13:33;13.00;78.20
38788;DHT22;24536;45.488;12.238;2022-11-20T03:16:12;13.00;78.50
38788;DHT22;24536;45.488;12.238;2022-11-20T03:18:39;13.00;78.70
38788;DHT22;24536;45.488;12.238;2022-11-20T03:21:05;13.00;78.60
38788;DHT22;24536;45.488;12.238;2022-11-20T03:23:31;13.00;78.70
38788;DHT22;24536;45.488;12.238;2022-11-20T03:26:11;13.00;78.60
38788;DHT22;24536;45.488;12.238;2022-11-20T03:28:38;13.00;78.80
38788;DHT22;24536;45.488;12.238;2022-11-20T03:31:11;13.00;78.90
38788;DHT22;24536;45.488;12.238;2022-11-20T03:33:38;13.00;79.00
38788;DHT22;24536;45.488;12.238;2022-11-20T03:36:06;13.00;78.90
38788;DHT22;24536;45.488;12.238;2022-11-20T03:38:32;13.00;78.60
38788;DHT22;24536;45.488;12.238;2022-11-20T03:41:03;13.00;78.80
38788;DHT22;24536;45.488;12.238;2022-11-20T03:43:29;13.00;78.90
38788;DHT22;24536;45.488;12.238;2022-11-20T03:45:55;13.00;78.90
38788;DHT22;24536;45.488;12.238;2022-11-20T03:48:21;12.90;78.90
38788;DHT22;24536;45.488;12.238;2022-11-20T03:50:46;12.90;79.20
38788;DHT22;24536;45.488;12.238;2022-11-20T03:53:14;12.90;79.40
38788;DHT22;24536;45.488;12.238;2022-11-20T03:55:39;12.90;79.50
38788;DHT22;24536;45.488;12.238;2022-11-20T03:58:05;12.90;79.30
38788;DHT22;24536;45.488;12.238;2022-11-20T04:00:31;12.80;79.30
38788;DHT22;24536;45.488;12.238;2022-11-20T04:03:00;12.80;79.30
38788;DHT22;24536;45.488;12.238;2022-11-20T04:05:26;12.80;79.50
38788;DHT22;24536;45.488;12.238;2022-11-20T04:07:51;12.80;79.60
38788;DHT22;24536;45.488;12.238;2022-11-20T04:10:17;12.80;79.70
38788;DHT22;24536;45.488;12.238;2022-11-20T04:12:43;12.80;79.70
38788;DHT22;24536;45.488;12.238;2022-11-20T04:15:09;12.80;79.70
38788;DHT22;24536;45.488;12.238;2022-11-20T04:17:34;12.80;79.80
38788;DHT22;24536;45.488;12.238;2022-11-20T04:20:00;12.80;79.90
38788;DHT22;24536;45.488;12.238;2022-11-20T04:22:26;12.70;79.80
38788;DHT22;24536;45.488;12.238;2022-11-20T04:24:52;12.70;79.90
38788;DHT22;24536;45.488;12.238;2022-11-20T04:27:17;12.70;80.00
38788;DHT22;24536;45.488;12.238;2022-11-20T04:29:43;12.70;79.90
38788;DHT22;24536;45.488;12.238;2022-11-20T04:32:09;12.70;79.90
38788;DHT22;24536;45.488;12.238;2022-11-20T04:34:34;12.70;80.00
38788;DHT22;24536;45.488;12.238;2022-11-20T04:37:00;12.70;80.00
38788;DHT22;24536;45.488;12.238;2022-11-20T04:39:26;12.70;80.00
38788;DHT22;24536;45.488;12.238;2022-11-20T04:41:52;12.70;80.30
38788;DHT22;24536;45.488;12.238;2022-11-20T04:44:36;12.60;79.80
38788;DHT22;24536;45.488;12.238;2022-11-20T04:47:01;12.50;79.80
38788;DHT22;24536;45.488;12.238;2022-11-20T04:49:27;12.50;80.20
38788;DHT22;24536;45.488;12.238;2022-11-20T04:51:53;12.40;80.20
38788;DHT22;24536;45.488;12.238;2022-11-20T04:54:19;12.40;80.40
38788;DHT22;24536;45.488;12.238;2022-11-20T04:56:47;12.30;80.60
38788;DHT22;24536;45.488;12.238;2022-11-20T04:59:13;12.30;80.70
38788;DHT22;24536;45.488;12.238;2022-11-20T05:01:39;12.30;80.90
38788;DHT22;24536;45.488;12.238;2022-11-20T05:04:04;12.30;81.00
38788;DHT22;24536;45.488;12.238;2022-11-20T05:06:31;12.30;81.00
38788;DHT22;24536;45.488;12.238;2022-11-20T05:08:57;12.40;81.00
38788;DHT22;24536;45.488;12.238;2022-11-20T05:11:24;12.40;81.20
38788;DHT22;24536;45.488;12.238;2022-11-20T05:13:51;12.40;81.00
38788;DHT22;24536;45.488;12.238;2022-11-20T05:16:19;12.40;81.00
38788;DHT22;24536;45.488;12.238;2022-11-20T05:18:45;12.40;81.00
38788;DHT22;24536;45.488;12.238;2022-11-20T05:21:12;12.30;81.10
38788;DHT22;24536;45.488;12.238;2022-11-20T05:23:38;12.20;81.20
38788;DHT22;24536;45.488;12.238;2022-11-20T05:26:05;12.20;81.50
38788;DHT22;24536;45.488;12.238;2022-11-20T05:28:32;12.10;81.60
38788;DHT22;24536;45.488;12.238;2022-11-20T05:31:05;12.10;81.70
38788;DHT22;24536;45.488;12.238;2022-11-20T05:33:32;12.10;82.00
38788;DHT22;24536;45.488;12.238;2022-11-20T05:35:58;12.10;82.10
38788;DHT22;24536;45.488;12.238;2022-11-20T05:38:24;12.00;82.20
38788;DHT22;24536;45.488;12.238;2022-11-20T05:40:50;12.00;82.20
38788;DHT22;24536;45.488;12.238;2022-11-20T05:43:15;12.00;82.20
38788;DHT22;24536;45.488;12.238;2022-11-20T05:45:41;11.90;82.60
38788;DHT22;24536;45.488;12.238;2022-11-20T05:48:07;11.90;82.30
38788;DHT22;24536;45.488;12.238;2022-11-20T05:50:32;11.90;82.80
38788;DHT22;24536;45.488;12.238;2022-11-20T05:52:59;11.80;82.70
38788;DHT22;24536;45.488;12.238;2022-11-20T05:55:25;11.80;82.80
38788;DHT22;24536;45.488;12.238;2022-11-20T05:57:53;11.70;82.90
38788;DHT22;24536;45.488;12.238;2022-11-20T06:00:19;11.70;83.20
38788;DHT22;24536;45.488;12.238;2022-11-20T06:02:45;11.60;83.20
38788;DHT22;24536;45.488;12.238;2022-11-20T06:05:10;11.60;83.30
38788;DHT22;24536;45.488;12.238;2022-11-20T06:07:36;11.60;83.40
38788;DHT22;24536;45.488;12.238;2022-11-20T06:10:02;11.50;83.50
38788;DHT22;24536;45.488;12.238;2022-11-20T06:12:28;11.40;83.60
38788;DHT22;24536;45.488;12.238;2022-11-20T06:14:53;11.50;83.80
38788;DHT22;24536;45.488;12.238;2022-11-20T06:17:19;11.60;83.90
38788;DHT22;24536;45.488;12.238;2022-11-20T06:19:44;11.60;83.90
38788;DHT22;24536;45.488;12.238;2022-11-20T06:22:10;11.70;83.70
38788;DHT22;24536;45.488;12.238;2022-11-20T06:24:36;11.60;83.40
38788;DHT22;24536;45.488;12.238;2022-11-20T06:27:01;11.70;83.60
38788;DHT22;24536;45.488;12.238;2022-11-20T06:29:27;11.60;83.60
38788;DHT22;24536;45.488;12.238;2022-11-20T06:31:53;11.50;83.70
38788;DHT22;24536;45.488;12.238;2022-11-20T06:34:19;11.50;83.90
38788;DHT22;24536;45.488;12.238;2022-11-20T06:36:44;11.50;84.00
38788;DHT22;24536;45.488;12.238;2022-11-20T06:39:10;11.40;84.00
38788;DHT22;24536;45.488;12.238;2022-11-20T06:41:35;11.40;84.40
38788;DHT22;24536;45.488;12.238;2022-11-20T06:44:03;11.30;84.30
38788;DHT22;24536;45.488;12.238;2022-11-20T06:46:28;11.30;84.60
38788;DHT22;24536;45.488;12.238;2022-11-20T06:48:54;11.30;84.50
38788;DHT22;24536;45.488;12.238;2022-11-20T06:51:20;11.40;84.60
38788;DHT22;24536;45.488;12.238;2022-11-20T06:53:46;11.40;84.50
38788;DHT22;24536;45.488;12.238;2022-11-20T06:56:12;11.40;84.30
38788;DHT22;24536;45.488;12.238;2022-11-20T06:58:38;11.40;84.10
38788;DHT22;24536;45.488;12.238;2022-11-20T07:01:12;11.40;84.10
38788;DHT22;24536;45.488;12.238;2022-11-20T07:03:38;11.40;84.10
38788;DHT22;24536;45.488;12.238;2022-11-20T07:06:04;11.40;84.20
38788;DHT22;24536;45.488;12.238;2022-11-20T07:08:30;11.50;84.10
38788;DHT22;24536;45.488;12.238;2022-11-20T07:11:00;11.50;84.10
38788;DHT22;24536;45.488;12.238;2022-11-20T07:13:27;11.40;83.70
38788;DHT22;24536;45.488;12.238;2022-11-20T07:15:53;11.40;83.80
38788;DHT22;24536;45.488;12.238;2022-11-20T07:18:19;11.40;84.00
38788;DHT22;24536;45.488;12.238;2022-11-20T07:20:45;11.40;84.30
38788;DHT22;24536;45.488;12.238;2022-11-20T07:23:11;11.50;84.60
38788;DHT22;24536;45.488;12.238;2022-11-20T07:25:36;11.50;84.70
38788;DHT22;24536;45.488;12.238;2022-11-20T07:28:02;11.60;84.70
38788;DHT22;24536;45.488;12.238;2022-11-20T07:30:29;11.70;84.70
38788;DHT22;24536;45.488;12.238;2022-11-20T07:32:56;11.70;84.40
38788;DHT22;24536;45.488;12.238;2022-11-20T07:35:23;11.80;84.00
38788;DHT22;24536;45.488;12.238;2022-11-20T07:37:50;11.80;83.30
38788;DHT22;24536;45.488;12.238;2022-11-20T07:40:16;11.70;83.40
38788;DHT22;24536;45.488;12.238;2022-11-20T07:42:53;11.70;83.50
38788;DHT22;24536;45.488;12.238;2022-11-20T07:45:20;11.70;83.50
38788;DHT22;24536;45.488;12.238;2022-11-20T07:47:46;11.70;83.40
38788;DHT22;24536;45.488;12.238;2022-11-20T07:50:13;11.70;83.50
38788;DHT22;24536;45.488;12.238;2022-11-20T07:52:39;11.70;83.50
38788;DHT22;24536;45.488;12.238;2022-11-20T07:55:06;11.70;83.60
38788;DHT22;24536;45.488;12.238;2022-11-20T07:57:32;11.70;83.80
38788;DHT22;24536;45.488;12.238;2022-11-20T07:59:57;11.80;83.80
38788;DHT22;24536;45.488;12.238;2022-11-20T08:02:23;11.70;83.30
38788;DHT22;24536;45.488;12.238;2022-11-20T08:04:49;11.70;83.30
38788;DHT22;24536;45.488;12.238;2022-11-20T08:07:15;11.80;83.40
38788;DHT22;24536;45.488;12.238;2022-11-20T08:09:41;11.90;83.50
38788;DHT22;24536;45.488;12.238;2022-11-20T08:12:06;11.90;83.30
38788;DHT22;24536;45.488;12.238;2022-11-20T08:14:51;11.90;83.30
38788;DHT22;24536;45.488;12.238;2022-11-20T08:17:16;12.00;83.20
38788;DHT22;24536;45.488;12.238;2022-11-20T08:19:42;12.10;83.10
38788;DHT22;24536;45.488;12.238;2022-11-20T08:22:08;12.10;83.20
38788;DHT22;24536;45.488;12.238;2022-11-20T08:24:33;12.20;83.20
38788;DHT22;24536;45.488;12.238;2022-11-20T08:26:59;12.20;83.20
38788;DHT22;24536;45.488;12.238;2022-11-20T08:29:26;12.30;83.10
38788;DHT22;24536;45.488;12.238;2022-11-20T08:31:52;12.50;83.20
38788;DHT22;24536;45.488;12.238;2022-11-20T08:34:18;12.60;83.10
38788;DHT22;24536;45.488;12.238;2022-11-20T08:36:43;12.80;82.80
38788;DHT22;24536;45.488;12.238;2022-11-20T08:39:12;12.90;82.40
38788;DHT22;24536;45.488;12.238;2022-11-20T08:41:38;13.00;81.90
38788;DHT22;24536;45.488;12.238;2022-11-20T08:44:05;13.10;81.80
38788;DHT22;24536;45.488;12.238;2022-11-20T08:46:37;13.10;81.40
38788;DHT22;24536;45.488;12.238;2022-11-20T08:49:04;13.10;81.20
38788;DHT22;24536;45.488;12.238;2022-11-20T08:51:32;13.10;80.80
38788;DHT22;24536;45.488;12.238;2022-11-20T08:54:13;13.10;80.90
38788;DHT22;24536;45.488;12.238;2022-11-20T08:56:39;13.10;80.80
38788;DHT22;24536;45.488;12.238;2022-11-20T08:59:04;13.20;81.10
38788;DHT22;24536;45.488;12.238;2022-11-20T09:01:30;13.20;81.20
38788;DHT22;24536;45.488;12.238;2022-11-20T09:03:56;13.30;81.20
38788;DHT22;24536;45.488;12.238;2022-11-20T09:06:22;13.30;80.70
38788;DHT22;24536;45.488;12.238;2022-11-20T09:08:52;13.30;80.60
38788;DHT22;24536;45.488;12.238;2022-11-20T09:11:18;13.30;80.80
38788;DHT22;24536;45.488;12.238;2022-11-20T09:13:44;13.40;80.80
38788;DHT22;24536;45.488;12.238;2022-11-20T09:16:10;13.40;80.30
38788;DHT22;24536;45.488;12.238;2022-11-20T09:18:36;13.50;80.40
38788;DHT22;24536;45.488;12.238;2022-11-20T09:21:05;13.50;80.00
38788;DHT22;24536;45.488;12.238;2022-11-20T09:23:32;13.50;80.10
38788;DHT22;24536;45.488;12.238;2022-11-20T09:26:02;13.60;80.40
38788;DHT22;24536;45.488;12.238;2022-11-20T09:28:28;13.70;80.30
38788;DHT22;24536;45.488;12.238;2022-11-20T09:30:53;13.80;80.10
38788;DHT22;24536;45.488;12.238;2022-11-20T09:33:19;13.90;79.60
38788;DHT22;24536;45.488;12.238;2022-11-20T09:35:45;13.90;79.00
38788;DHT22;24536;45.488;12.238;2022-11-20T09:38:11;13.90;79.00
38788;DHT22;24536;45.488;12.238;2022-11-20T09:40:40;14.00;78.90
38788;DHT22;24536;45.488;12.238;2022-11-20T09:43:24;14.00;78.00
38788;DHT22;24536;45.488;12.238;2022-11-20T09:54:26;14.20;77.10
38788;DHT22;24536;45.488;12.238;2022-11-20T09:57:10;14.30;77.40
38788;DHT22;24536;45.488;12.238;2022-11-20T09:59:49;14.40;76.90
38788;DHT22;24536;45.488;12.238;2022-11-20T10:05:23;14.60;76.40
38788;DHT22;24536;45.488;12.238;2022-11-20T10:07:55;14.70;75.30
38788;DHT22;24536;45.488;12.238;2022-11-20T10:26:46;15.80;73.10
38788;DHT22;24536;45.488;12.238;2022-11-20T10:29:16;16.10;73.00
38788;DHT22;24536;45.488;12.238;2022-11-20T10:31:48;16.30;70.00
38788;DHT22;24536;45.488;12.238;2022-11-20T10:34:43;16.40;69.60
38788;DHT22;24536;45.488;12.238;2022-11-20T10:37:26;16.50;67.90
38788;DHT22;24536;45.488;12.238;2022-11-20T10:40:18;16.50;69.90
38788;DHT22;24536;45.488;12.238;2022-11-20T10:45:36;16.70;69.50
38788;DHT22;24536;45.488;12.238;2022-11-20T10:48:19;16.70;69.20
38788;DHT22;24536;45.488;12.238;2022-11-20T10:56:42;16.90;69.00
38788;DHT22;24536;45.488;12.238;2022-11-20T11:01:56;17.30;68.90
38788;DHT22;24536;45.488;12.238;2022-11-20T11:07:10;17.70;68.00
38788;DHT22;24536;45.488;12.238;2022-11-20T11:09:42;17.90;67.30
38788;DHT22;24536;45.488;12.238;2022-11-20T11:12:09;18.20;67.00
38788;DHT22;24536;45.488;12.238;2022-11-20T11:14:43;18.40;66.40
38788;DHT22;24536;45.488;12.238;2022-11-20T11:17:22;18.60;66.00
38788;DHT22;24536;45.488;12.238;2022-11-20T11:22:49;19.00;65.10
38788;DHT22;24536;45.488;12.238;2022-11-20T11:25:33;19.20;64.20
38788;DHT22;24536;45.488;12.238;2022-11-20T11:28:04;19.70;64.10
38788;DHT22;24536;45.488;12.238;2022-11-20T11:30:41;20.30;62.30
38788;DHT22;24536;45.488;12.238;2022-11-20T11:33:11;21.30;60.30
38788;DHT22;24536;45.488;12.238;2022-11-20T11:35:51;22.40;58.20
38788;DHT22;24536;45.488;12.238;2022-11-20T11:38:41;23.70;55.70
38788;DHT22;24536;45.488;12.238;2022-11-20T11:41:23;25.00;53.60
38788;DHT22;24536;45.488;12.238;2022-11-20T11:43:58;25.90;45.70
38788;DHT22;24536;45.488;12.238;2022-11-20T11:46:49;26.20;43.90
38788;DHT22;24536;45.488;12.238;2022-11-20T11:49:19;26.60;43.80
38788;DHT22;24536;45.488;12.238;2022-11-20T11:54:57;27.40;41.50
38788;DHT22;24536;45.488;12.238;2022-11-20T11:57:50;27.30;42.80
38788;DHT22;24536;45.488;12.238;2022-11-20T12:00:19;27.60;43.00
38788;DHT22;24536;45.488;12.238;2022-11-20T12:07:49;28.50;40.90
38788;DHT22;24536;45.488;12.238;2022-11-20T12:12:49;28.90;39.10
38788;DHT22;24536;45.488;12.238;2022-11-20T12:15:27;29.10;38.00
38788;DHT22;24536;45.488;12.238;2022-11-20T12:17:54;29.10;38.10
38788;DHT22;24536;45.488;12.238;2022-11-20T12:20:24;29.00;38.00
38788;DHT22;24536;45.488;12.238;2022-11-20T12:23:09;28.90;37.70
38788;DHT22;24536;45.488;12.238;2022-11-20T12:25:40;28.70;37.50
38788;DHT22;24536;45.488;12.238;2022-11-20T12:31:06;28.30;38.50
38788;DHT22;24536;45.488;12.238;2022-11-20T12:33:49;28.00;38.00
38788;DHT22;24536;45.488;12.238;2022-11-20T12:36:34;27.80;37.60
38788;DHT22;24536;45.488;12.238;2022-11-20T12:39:50;27.50;37.50
38788;DHT22;24536;45.488;12.238;2022-11-20T12:48:19;27.20;37.50
38788;DHT22;24536;45.488;12.238;2022-11-20T12:59:06;27.10;37.50
38788;DHT22;24536;45.488;12.238;2022-11-20T13:01:39;27.10;38.10
38788;DHT22;24536;45.488;12.238;2022-11-20T13:06:46;26.60;37.60
38788;DHT22;24536;45.488;12.238;2022-11-20T13:09:16;25.90;37.60
38788;DHT22;24536;45.488;12.238;2022-11-20T13:11:52;25.20;38.50
38788;DHT22;24536;45.488;12.238;2022-11-20T13:17:10;23.70;40.90
38788;DHT22;24536;45.488;12.238;2022-11-20T13:19:37;23.10;42.60
38788;DHT22;24536;45.488;12.238;2022-11-20T13:22:03;22.40;43.60
38788;DHT22;24536;45.488;12.238;2022-11-20T13:24:30;21.90;44.50
38788;DHT22;24536;45.488;12.238;2022-11-20T13:29:42;21.10;46.30
38788;DHT22;24536;45.488;12.238;2022-11-20T13:32:17;20.70;47.30
38788;DHT22;24536;45.488;12.238;2022-11-20T13:34:58;20.40;48.00
38788;DHT22;24536;45.488;12.238;2022-11-20T13:37:34;20.10;48.40
38788;DHT22;24536;45.488;12.238;2022-11-20T13:43:02;19.70;49.40
38788;DHT22;24536;45.488;12.238;2022-11-20T13:45:27;19.50;49.90
38788;DHT22;24536;45.488;12.238;2022-11-20T13:47:54;19.40;50.50
38788;DHT22;24536;45.488;12.238;2022-11-20T13:50:58;19.20;50.80
38788;DHT22;24536;45.488;12.238;2022-11-20T13:58:59;18.80;52.00
38788;DHT22;24536;45.488;12.238;2022-11-20T14:01:30;18.60;52.70
38788;DHT22;24536;45.488;12.238;2022-11-20T14:03:57;18.50;53.10
38788;DHT22;24536;45.488;12.238;2022-11-20T14:06:31;18.40;53.60
38788;DHT22;24536;45.488;12.238;2022-11-20T14:08:58;18.30;53.60
38788;DHT22;24536;45.488;12.238;2022-11-20T14:11:26;18.20;53.70
38788;DHT22;24536;45.488;12.238;2022-11-20T14:13:56;18.10;53.90
38788;DHT22;24536;45.488;12.238;2022-11-20T14:16:24;18.00;54.40
38788;DHT22;24536;45.488;12.238;2022-11-20T14:18:50;17.90;54.50
38788;DHT22;24536;45.488;12.238;2022-11-20T14:21:27;17.80;55.20
38788;DHT22;24536;45.488;12.238;2022-11-20T14:24:04;17.70;55.50
38788;DHT22;24536;45.488;12.238;2022-11-20T14:26:29;17.60;55.80
38788;DHT22;24536;45.488;12.238;2022-11-20T14:28:56;17.60;55.90
38788;DHT22;24536;45.488;12.238;2022-11-20T14:31:24;17.50;56.40
38788;DHT22;24536;45.488;12.238;2022-11-20T14:33:54;17.50;57.00
38788;DHT22;24536;45.488;12.238;2022-11-20T14:36:22;17.50;57.50
38788;DHT22;24536;45.488;12.238;2022-11-20T14:38:50;17.40;57.50
38788;DHT22;24536;45.488;12.238;2022-11-20T14:41:21;17.40;57.40
38788;DHT22;24536;45.488;12.238;2022-11-20T14:43:54;17.40;57.40
38788;DHT22;24536;45.488;12.238;2022-11-20T14:46:21;17.30;57.70
38788;DHT22;24536;45.488;12.238;2022-11-20T14:48:55;17.20;58.30
38788;DHT22;24536;45.488;12.238;2022-11-20T14:51:38;17.10;58.70
38788;DHT22;24536;45.488;12.238;2022-11-20T14:54:18;17.10;59.00
38788;DHT22;24536;45.488;12.238;2022-11-20T14:56:58;17.10;59.20
38788;DHT22;24536;45.488;12.238;2022-11-20T14:59:32;17.00;59.10
38788;DHT22;24536;45.488;12.238;2022-11-20T15:02:02;17.00;59.20
38788;DHT22;24536;45.488;12.238;2022-11-20T15:04:28;16.90;59.20
38788;DHT22;24536;45.488;12.238;2022-11-20T15:06:55;16.80;59.40
38788;DHT22;24536;45.488;12.238;2022-11-20T15:09:22;16.80;59.50
38788;DHT22;24536;45.488;12.238;2022-11-20T15:12:06;16.70;59.80
38788;DHT22;24536;45.488;12.238;2022-11-20T15:14:32;16.70;60.00
38788;DHT22;24536;45.488;12.238;2022-11-20T15:17:00;16.70;60.30
38788;DHT22;24536;45.488;12.238;2022-11-20T15:19:26;16.60;60.40
38788;DHT22;24536;45.488;12.238;2022-11-20T15:21:53;16.50;60.80
38788;DHT22;24536;45.488;12.238;2022-11-20T15:24:18;16.50;61.20
38788;DHT22;24536;45.488;12.238;2022-11-20T15:26:44;16.50;61.50
38788;DHT22;24536;45.488;12.238;2022-11-20T15:29:15;16.40;62.00
38788;DHT22;24536;45.488;12.238;2022-11-20T15:31:44;16.40;62.30
38788;DHT22;24536;45.488;12.238;2022-11-20T15:34:15;16.30;62.80
38788;DHT22;24536;45.488;12.238;2022-11-20T15:36:41;16.30;63.40
38788;DHT22;24536;45.488;12.238;2022-11-20T15:39:07;16.20;63.90
38788;DHT22;24536;45.488;12.238;2022-11-20T15:41:34;16.20;64.20
38788;DHT22;24536;45.488;12.238;2022-11-20T15:44:00;16.20;64.80
38788;DHT22;24536;45.488;12.238;2022-11-20T15:46:28;16.10;65.20
38788;DHT22;24536;45.488;12.238;2022-11-20T15:48:55;16.10;65.20
38788;DHT22;24536;45.488;12.238;2022-11-20T15:51:35;16.00;65.50
38788;DHT22;24536;45.488;12.238;2022-11-20T15:54:10;16.00;65.90
38788;DHT22;24536;45.488;12.238;2022-11-20T15:56:36;15.90;66.20
38788;DHT22;24536;45.488;12.238;2022-11-20T15:59:02;15.80;66.40
38788;DHT22;24536;45.488;12.238;2022-11-20T16:01:28;15.80;66.50
38788;DHT22;24536;45.488;12.238;2022-11-20T16:03:54;15.80;66.80
38788;DHT22;24536;45.488;12.238;2022-11-20T16:06:19;15.70;67.00
38788;DHT22;24536;45.488;12.238;2022-11-20T16:08:47;15.70;67.00
38788;DHT22;24536;45.488;12.238;2022-11-20T16:11:15;15.70;67.10
38788;DHT22;24536;45.488;12.238;2022-11-20T16:13:41;15.60;67.10
38788;DHT22;24536;45.488;12.238;2022-11-20T16:16:44;15.60;67.40
38788;DHT22;24536;45.488;12.238;2022-11-20T16:19:11;15.60;67.90
38788;DHT22;24536;45.488;12.238;2022-11-20T16:21:37;15.50;67.80
38788;DHT22;24536;45.488;12.238;2022-11-20T16:24:08;15.50;67.90
38788;DHT22;24536;45.488;12.238;2022-11-20T16:26:36;15.50;68.20
38788;DHT22;24536;45.488;12.238;2022-11-20T16:29:09;15.40;68.40
38788;DHT22;24536;45.488;12.238;2022-11-20T16:31:35;15.40;68.70
38788;DHT22;24536;45.488;12.238;2022-11-20T16:34:04;15.40;69.20
38788;DHT22;24536;45.488;12.238;2022-11-20T16:36:31;15.30;69.40
38788;DHT22;24536;45.488;12.238;2022-11-20T16:38:59;15.30;69.60
38788;DHT22;24536;45.488;12.238;2022-11-20T16:41:30;15.30;69.80
38788;DHT22;24536;45.488;12.238;2022-11-20T16:43:57;15.20;69.90
38788;DHT22;24536;45.488;12.238;2022-11-20T16:46:25;15.20;70.10
38788;DHT22;24536;45.488;12.238;2022-11-20T16:48:59;15.20;70.30
38788;DHT22;24536;45.488;12.238;2022-11-20T16:51:26;15.10;70.50
38788;DHT22;24536;45.488;12.238;2022-11-20T16:53:53;15.10;70.50
38788;DHT22;24536;45.488;12.238;2022-11-20T16:56:22;15.10;70.70
38788;DHT22;24536;45.488;12.238;2022-11-20T16:58:49;15.10;71.20
38788;DHT22;24536;45.488;12.238;2022-11-20T17:01:20;15.00;71.60
38788;DHT22;24536;45.488;12.238;2022-11-20T17:03:52;15.00;71.70